Time;durP1;ratioP1;P1;durP2;ratioP2;P2;SDS_P1;SDS_P2;PMS_P1;PMS_P2;Temp;Humidity;BMP_temperature;BMP_pressure;BME280_temperature;BME280_humidity;BME280_pressure;Samples;Min_cycle;Max_cycle;Signal;HPM_P1;HPM_P2
2021/03/05 00:02:42;;;;;;;4.60;3.17;;;2.80;99.90;1.90;96450.00;;;;5038968;28;20957;-86
2021/03/05 00:05:44;;;;;;;10.43;3.77;;;3.60;99.90;1.80;96439.00;;;;5043913;28;20421;-86
2021/03/05 00:08:32;;;;;;;4.47;2.73;;;3.00;99.90;1.70;96449.00;;;;5047984;28;20467;-86
2021/03/05 00:11:22;;;;;;;5.03;3.27;;;3.40;99.90;1.60;96445.00;;;;5035680;28;20473;-84
2021/03/05 00:14:10;;;;;;;5.17;3.10;;;2.80;99.90;1.70;96449.00;;;;5028834;28;20425;-86
2021/03/05 00:16:58;;;;;;;6.60;3.00;;;3.10;99.90;1.70;96463.00;;;;5029276;28;20422;-84
2021/03/05 00:19:46;;;;;;;6.73;2.90;;;3.30;99.90;1.80;96460.00;;;;5028984;28;20437;-84
2021/03/05 00:22:34;;;;;;;7.37;3.03;;;3.30;99.90;1.80;96439.00;;;;5028429;28;20461;-86
2021/03/05 00:25:22;;;;;;;6.63;3.23;;;2.80;99.90;1.80;96452.00;;;;5033431;28;20431;-86
2021/03/05 00:28:11;;;;;;;4.97;2.67;;;2.90;99.90;1.80;96450.00;;;;5040686;28;20443;-86
2021/03/05 00:30:59;;;;;;;6.03;3.00;;;2.90;99.90;1.80;96436.00;;;;5048734;28;20425;-86
2021/03/05 00:33:46;;;;;;;5.47;2.90;;;3.20;99.90;1.80;96437.00;;;;5048240;28;20413;-86
2021/03/05 00:36:35;;;;;;;7.93;3.10;;;2.90;99.90;1.70;96442.00;;;;5047980;28;20428;-86
2021/03/05 00:39:23;;;;;;;5.20;2.53;;;3.20;99.90;1.60;96434.00;;;;5047536;28;20442;-86
2021/03/05 00:42:11;;;;;;;5.17;3.27;;;2.90;99.90;1.50;96433.00;;;;5035669;28;20457;-86
2021/03/05 00:45:00;;;;;;;2.63;2.43;;;2.80;99.90;1.40;96419.00;;;;5027552;28;20429;-86
2021/03/05 00:47:48;;;;;;;9.60;4.23;;;2.80;99.90;1.40;96417.00;;;;5037504;28;20452;-86
2021/03/05 00:50:36;;;;;;;3.37;2.40;;;2.90;99.90;1.40;96425.00;;;;5044503;28;20832;-86
2021/03/05 00:53:24;;;;;;;6.03;2.70;;;2.60;99.90;1.50;96418.00;;;;5035734;28;20520;-86
2021/03/05 00:56:11;;;;;;;5.07;3.50;;;2.70;99.90;1.40;96419.00;;;;5049064;28;20432;-86
2021/03/05 00:58:59;;;;;;;7.93;3.83;;;2.50;99.90;1.50;96410.00;;;;5041885;28;20428;-86
2021/03/05 01:01:48;;;;;;;4.90;2.87;;;2.60;99.90;1.70;96410.00;;;;5039134;28;20461;-86
2021/03/05 01:04:36;;;;;;;6.77;3.47;;;2.70;99.90;1.80;96412.00;;;;5030634;28;20452;-86
2021/03/05 01:07:24;;;;;;;7.17;2.90;;;2.70;99.90;1.90;96415.00;;;;5030038;28;20453;-85
2021/03/05 01:10:13;;;;;;;9.00;3.03;;;2.80;99.90;1.80;96408.00;;;;5034215;28;20521;-86
2021/03/05 01:13:01;;;;;;;6.20;2.73;;;2.90;99.90;1.80;96403.00;;;;5034718;28;20500;-86
2021/03/05 01:15:49;;;;;;;3.93;2.60;;;2.90;99.90;1.70;96396.00;;;;5032769;28;20434;-86
2021/03/05 01:18:38;;;;;;;6.20;2.83;;;2.90;99.90;1.80;96412.00;;;;5041514;28;20451;-86
2021/03/05 01:21:26;;;;;;;4.00;2.70;;;2.80;99.90;1.80;96404.00;;;;5048331;28;20462;-86
2021/03/05 01:24:14;;;;;;;3.30;2.53;;;3.30;99.90;1.50;96399.00;;;;5046332;28;20439;-86
2021/03/05 01:27:03;;;;;;;4.30;3.03;;;2.80;99.90;1.50;96395.00;;;;5041267;28;20429;-86
2021/03/05 01:29:51;;;;;;;5.63;3.40;;;2.80;99.90;1.70;96404.00;;;;5044137;28;20437;-85
2021/03/05 01:32:39;;;;;;;6.97;4.37;;;2.70;99.90;1.70;96387.00;;;;5048852;28;20487;-84
2021/03/05 01:35:29;;;;;;;3.67;3.13;;;3.10;99.90;1.90;96392.00;;;;5049891;28;20435;-86
2021/03/05 01:38:17;;;;;;;5.20;2.83;;;3.00;99.90;1.80;96390.00;;;;5049144;28;20431;-83
2021/03/05 01:41:05;;;;;;;4.37;2.80;;;2.90;99.90;1.80;96381.00;;;;5048732;28;20428;-86
2021/03/05 01:43:53;;;;;;;5.60;2.40;;;4.80;99.90;1.50;96378.00;;;;5049127;28;20412;-85
2021/03/05 01:46:41;;;;;;;3.83;3.10;;;2.80;99.90;1.50;96370.00;;;;5051057;28;20444;-85
2021/03/05 01:49:29;;;;;;;3.17;2.83;;;3.20;99.90;1.40;96373.00;;;;5048870;28;20429;-84
2021/03/05 01:52:18;;;;;;;5.60;3.60;;;3.30;99.90;1.30;96372.00;;;;5043134;28;20480;-85
2021/03/05 01:55:06;;;;;;;5.60;3.47;;;2.80;99.90;1.40;96373.00;;;;5039780;28;20456;-85
2021/03/05 01:57:55;;;;;;;4.40;3.40;;;2.60;99.90;1.50;96360.00;;;;5049198;28;20416;-85
2021/03/05 02:00:47;;;;;;;3.63;2.30;;;2.90;99.90;1.40;96366.00;;;;5049593;28;20421;-85
2021/03/05 02:03:36;;;;;;;5.13;2.80;;;3.20;99.90;1.40;96366.00;;;;5030431;28;20439;-85
2021/03/05 02:06:24;;;;;;;5.73;3.00;;;2.60;99.90;1.30;96356.00;;;;5032831;28;20436;-83
2021/03/05 02:09:13;;;;;;;2.87;2.67;;;2.80;99.90;1.40;96366.00;;;;5036466;28;20436;-84
2021/03/05 02:12:02;;;;;;;4.13;2.77;;;2.50;99.90;1.20;96350.00;;;;5051454;28;20474;-85
2021/03/05 02:14:50;;;;;;;5.50;2.57;;;3.50;99.90;1.40;96350.00;;;;5051259;28;20436;-84
2021/03/05 02:17:46;;;;;;;2.63;2.33;;;3.10;99.90;1.50;96347.00;;;;5042477;28;20438;-84
2021/03/05 02:20:53;;;;;;;5.57;3.30;;;3.40;99.90;1.60;96346.00;;;;5049973;28;20435;-85
2021/03/05 02:23:58;;;;;;;3.30;2.90;;;3.60;99.90;1.60;96350.00;;;;5050718;28;20443;-84
2021/03/05 02:27:11;;;;;;;4.27;2.80;;;2.60;99.90;1.70;96344.00;;;;5052162;28;20427;-85
2021/03/05 02:30:36;;;;;;;13.10;4.47;;;2.70;99.90;1.80;96351.00;;;;5049589;28;20436;-84
2021/03/05 02:33:30;;;;;;;5.87;3.23;;;2.80;99.90;1.90;96351.00;;;;5049979;28;20455;-86
2021/03/05 02:36:23;;;;;;;3.70;2.83;;;2.90;99.90;1.60;96345.00;;;;5051846;28;20420;-85
2021/03/05 02:39:15;;;;;;;3.97;2.93;;;2.90;99.90;1.50;96348.00;;;;5049836;28;20443;-84
2021/03/05 02:42:09;;;;;;;5.00;2.47;;;3.10;99.90;1.60;96348.00;;;;5044355;28;20465;-84
2021/03/05 02:45:01;;;;;;;3.40;2.30;;;2.70;99.90;1.60;96346.00;;;;5051119;28;20440;-85
2021/03/05 02:47:55;;;;;;;5.97;3.53;;;2.70;99.90;1.60;96337.00;;;;5050439;28;20462;-86
2021/03/05 02:50:50;;;;;;;3.63;2.77;;;3.10;99.90;1.70;96333.00;;;;5049572;28;20428;-86
2021/03/05 02:53:41;;;;;;;5.80;2.93;;;3.10;99.90;1.80;96341.00;;;;5041291;28;20444;-85
2021/03/05 02:56:32;;;;;;;4.57;2.90;;;2.90;99.90;1.90;96329.00;;;;5041427;28;20520;-84
2021/03/05 02:59:23;;;;;;;4.63;2.57;;;3.10;99.90;2.00;96323.00;;;;5033737;28;20420;-85
2021/03/05 03:02:11;;;;;;;5.30;2.87;;;3.40;99.90;2.10;96324.00;;;;5044198;28;20448;-84
2021/03/05 03:05:01;;;;;;;6.90;2.80;;;3.40;99.90;2.10;96315.00;;;;5049421;28;20428;-85
2021/03/05 03:07:59;;;;;;;5.00;3.07;;;3.30;99.90;2.10;96294.00;;;;5049645;28;20437;-86
2021/03/05 03:10:49;;;;;;;8.43;3.70;;;3.40;99.90;2.10;96296.00;;;;5050700;28;20437;-85
2021/03/05 03:13:37;;;;;;;7.00;2.70;;;3.10;99.90;1.70;96303.00;;;;5051536;28;20476;-84
2021/03/05 03:16:27;;;;;;;5.70;2.73;;;3.10;99.90;1.60;96315.00;;;;5052023;28;20444;-84
2021/03/05 03:19:18;;;;;;;3.80;2.87;;;3.00;99.90;1.70;96315.00;;;;5050255;28;20428;-85
2021/03/05 03:22:06;;;;;;;3.70;3.20;;;3.10;99.90;1.80;96324.00;;;;5042542;28;20445;-86
2021/03/05 03:24:56;;;;;;;10.43;3.70;;;2.90;99.90;1.90;96320.00;;;;5031293;28;20410;-85
2021/03/05 03:27:45;;;;;;;7.70;3.93;;;2.90;99.90;1.70;96317.00;;;;5044698;28;20447;-85
2021/03/05 03:30:32;;;;;;;6.63;3.47;;;2.90;99.90;1.70;96312.00;;;;5051263;28;20432;-84
2021/03/05 03:33:21;;;;;;;8.93;3.23;;;3.40;99.90;2.00;96328.00;;;;5055452;28;20479;-83
2021/03/05 03:36:09;;;;;;;6.83;3.53;;;3.20;99.90;2.00;96323.00;;;;5053627;28;20443;-84
2021/03/05 03:38:57;;;;;;;7.97;3.40;;;2.90;99.90;1.80;96331.00;;;;5048626;28;20441;-85
2021/03/05 03:41:46;;;;;;;6.03;2.50;;;3.00;99.90;1.80;96324.00;;;;5044214;28;20460;-84
2021/03/05 03:44:34;;;;;;;4.23;3.50;;;2.90;99.90;1.70;96340.00;;;;5043151;28;20437;-86
2021/03/05 03:47:22;;;;;;;11.87;3.37;;;3.40;99.90;1.50;96329.00;;;;5041154;28;20454;-85
2021/03/05 03:50:19;;;;;;;3.90;3.00;;;2.80;99.90;1.60;96341.00;;;;5048228;28;20433;-86
2021/03/05 03:53:12;;;;;;;4.77;3.27;;;3.20;99.90;1.60;96342.00;;;;5050270;28;20484;-85
2021/03/05 03:56:03;;;;;;;5.60;2.97;;;3.00;99.90;1.80;96345.00;;;;5049208;28;20443;-86
2021/03/05 03:58:54;;;;;;;4.93;2.70;;;2.80;99.90;1.80;96350.00;;;;5036447;28;20433;-85
2021/03/05 04:01:45;;;;;;;7.50;4.33;;;3.20;99.90;1.90;96349.00;;;;5039363;28;20467;-84
2021/03/05 04:04:35;;;;;;;6.93;2.87;;;3.40;99.90;2.00;96359.00;;;;5047613;28;20431;-86
2021/03/05 04:07:26;;;;;;;5.97;3.03;;;2.90;99.90;2.10;96355.00;;;;5041376;28;20441;-86
2021/03/05 04:10:16;;;;;;;7.77;3.70;;;3.30;99.90;2.00;96358.00;;;;5043913;28;20463;-85
2021/03/05 04:13:05;;;;;;;2.80;2.50;;;3.10;99.90;2.00;96370.00;;;;5042760;28;20469;-85
2021/03/05 04:15:54;;;;;;;12.73;3.23;;;3.10;99.90;1.90;96365.00;;;;5030731;28;20747;-85
2021/03/05 04:18:42;;;;;;;4.73;3.33;;;3.00;99.90;1.90;96368.00;;;;5041121;28;20439;-85
2021/03/05 04:21:34;;;;;;;6.43;4.00;;;3.00;99.90;2.00;96356.00;;;;5039450;28;20452;-85
2021/03/05 04:24:21;;;;;;;7.17;3.67;;;3.00;99.90;2.10;96354.00;;;;5045749;28;20428;-86
2021/03/05 04:27:11;;;;;;;7.17;3.73;;;3.10;99.90;2.30;96356.00;;;;5042088;28;20445;-84
2021/03/05 04:29:59;;;;;;;7.03;4.13;;;3.20;99.90;2.20;96364.00;;;;5047087;28;20435;-85
2021/03/05 04:32:47;;;;;;;5.57;3.20;;;3.20;99.90;2.00;96355.00;;;;5045892;28;20468;-84
2021/03/05 04:35:35;;;;;;;5.00;3.13;;;3.20;99.90;2.00;96352.00;;;;5047752;28;20444;-85
2021/03/05 04:38:23;;;;;;;5.03;3.80;;;3.20;99.90;2.20;96351.00;;;;5048508;28;20426;-85
2021/03/05 04:41:11;;;;;;;4.00;2.90;;;3.20;99.90;2.20;96350.00;;;;5047004;28;20425;-84
2021/03/05 04:44:00;;;;;;;4.97;3.40;;;3.50;99.90;2.10;96357.00;;;;5045851;28;20425;-85
2021/03/05 04:46:48;;;;;;;7.37;3.50;;;3.20;99.90;2.00;96352.00;;;;5046802;28;20442;-84
2021/03/05 04:49:37;;;;;;;7.80;3.23;;;3.30;99.90;1.90;96364.00;;;;5046993;28;20433;-85
2021/03/05 04:52:25;;;;;;;7.93;3.47;;;3.40;99.90;2.10;96355.00;;;;5046700;28;20469;-85
2021/03/05 04:55:13;;;;;;;3.80;3.17;;;3.20;99.90;2.00;96358.00;;;;5047110;28;20443;-84
2021/03/05 04:58:01;;;;;;;4.63;3.70;;;3.10;99.90;2.10;96367.00;;;;5043951;28;20440;-84
2021/03/05 05:00:49;;;;;;;6.40;3.30;;;3.10;99.90;2.20;96374.00;;;;5031140;28;20444;-84
2021/03/05 05:03:37;;;;;;;3.57;2.47;;;3.20;99.90;2.20;96371.00;;;;5049299;28;20976;-82
2021/03/05 05:06:26;;;;;;;6.80;3.13;;;3.30;99.90;2.30;96362.00;;;;5050118;28;20436;-85
2021/03/05 05:09:14;;;;;;;4.23;2.33;;;3.50;99.90;2.20;96365.00;;;;5049763;28;20436;-83
2021/03/05 05:12:02;;;;;;;5.73;3.70;;;3.50;99.90;2.10;96367.00;;;;5050522;28;20472;-85
2021/03/05 05:14:50;;;;;;;9.47;6.63;;;3.20;99.90;2.20;96383.00;;;;5048118;28;20446;-85
2021/03/05 05:17:37;;;;;;;7.40;4.30;;;3.30;99.90;2.20;96374.00;;;;5043824;28;20436;-84
2021/03/05 05:20:25;;;;;;;7.00;5.27;;;3.30;99.90;2.40;96360.00;;;;5045357;28;20506;-85
2021/03/05 05:23:14;;;;;;;8.87;5.00;;;3.50;99.90;2.50;96359.00;;;;5045055;28;20459;-84
2021/03/05 05:26:02;;;;;;;5.63;4.20;;;3.40;99.90;2.50;96360.00;;;;5045634;28;20448;-85
2021/03/05 05:28:50;;;;;;;14.17;4.43;;;3.40;99.90;2.60;96351.00;;;;5042931;28;20417;-85
2021/03/05 05:31:38;;;;;;;8.73;4.07;;;3.50;99.90;2.70;96353.00;;;;5047660;28;20471;-84
2021/03/05 05:34:26;;;;;;;3.73;2.87;;;3.60;99.90;2.70;96355.00;;;;5040191;28;20432;-85
2021/03/05 05:37:13;;;;;;;6.57;3.73;;;3.70;99.90;2.60;96355.00;;;;5036244;28;20428;-84
2021/03/05 05:40:03;;;;;;;8.47;4.07;;;3.70;99.90;2.40;96355.00;;;;5050246;28;20428;-84
2021/03/05 05:42:51;;;;;;;7.17;3.43;;;3.60;99.90;2.10;96346.00;;;;5080418;23;20780;-70
2021/03/05 05:45:39;;;;;;;5.40;3.00;;;3.50;99.90;2.10;96342.00;;;;5066480;28;20417;-70
2021/03/05 05:48:27;;;;;;;4.43;3.50;;;3.40;99.90;2.10;96341.00;;;;5079793;28;20980;-70
2021/03/05 05:51:18;;;;;;;4.23;2.90;;;3.30;99.90;2.20;96334.00;;;;5065854;28;20444;-70
2021/03/05 05:54:10;;;;;;;7.47;3.53;;;3.30;99.90;2.40;96348.00;;;;5067843;28;20436;-70
2021/03/05 05:57:01;;;;;;;4.37;3.63;;;3.30;99.90;2.50;96356.00;;;;5074252;28;20477;-70
2021/03/05 05:59:50;;;;;;;8.63;3.57;;;3.40;99.90;2.50;96359.00;;;;5073012;28;20817;-70
2021/03/05 06:02:42;;;;;;;5.27;3.53;;;3.50;99.90;2.50;96363.00;;;;5073868;28;20443;-70
2021/03/05 06:05:31;;;;;;;8.20;3.20;;;3.50;99.90;2.60;96373.00;;;;5080593;28;20441;-70
2021/03/05 06:08:20;;;;;;;7.00;3.53;;;3.60;99.90;2.70;96379.00;;;;5078235;28;20437;-70
2021/03/05 06:11:08;;;;;;;4.80;3.17;;;3.60;99.90;2.70;96385.00;;;;5077286;28;20430;-70
2021/03/05 06:13:57;;;;;;;9.17;3.57;;;3.60;99.90;2.80;96387.00;;;;5072145;28;20418;-70
2021/03/05 06:16:56;;;;;;;5.17;3.60;;;3.70;99.90;2.80;96393.00;;;;5065763;28;20438;-70
2021/03/05 06:19:44;;;;;;;5.27;3.40;;;3.80;99.90;2.80;96389.00;;;;5063462;28;20476;-69
2021/03/05 06:22:32;;;;;;;4.13;3.67;;;3.80;99.90;2.80;96400.00;;;;5072543;28;20478;-70
2021/03/05 06:25:35;;;;;;;6.27;4.03;;;3.80;99.90;2.90;96392.00;;;;5074620;28;20460;-70
2021/03/05 06:28:23;;;;;;;5.73;4.37;;;3.80;99.90;3.00;96397.00;;;;5077430;28;21027;-70
2021/03/05 06:31:14;;;;;;;8.27;4.00;;;3.90;99.90;3.10;96402.00;;;;5074972;28;20434;-70
2021/03/05 06:34:04;;;;;;;7.60;3.60;;;3.90;99.90;3.10;96389.00;;;;5075900;28;20442;-70
2021/03/05 06:37:00;;;;;;;6.00;4.10;;;4.00;99.90;3.20;96395.00;;;;5071042;28;20458;-70
2021/03/05 06:39:58;;;;;;;8.03;4.20;;;4.10;99.90;3.00;96413.00;;;;5084924;28;20420;-70
2021/03/05 06:42:51;;;;;;;8.17;3.23;;;4.10;99.90;2.90;96408.00;;;;5082445;28;20481;-69
2021/03/05 06:45:39;;;;;;;9.93;3.87;;;4.10;99.90;3.00;96409.00;;;;5073055;28;20436;-69
2021/03/05 06:48:27;;;;;;;5.27;2.67;;;4.00;99.90;3.20;96395.00;;;;5066754;28;20426;-69
2021/03/05 06:51:16;;;;;;;7.73;3.93;;;4.00;99.90;3.50;96412.00;;;;5080857;28;20441;-69
2021/03/05 06:54:10;;;;;;;9.30;3.50;;;4.20;99.90;3.40;96412.00;;;;5068043;28;20434;-69
2021/03/05 06:56:58;;;;;;;5.23;3.80;;;4.30;99.90;3.30;96415.00;;;;5082110;28;20453;-69
2021/03/05 06:59:46;;;;;;;6.63;3.17;;;4.30;99.90;3.40;96414.00;;;;5065985;28;20776;-69
2021/03/05 07:02:36;;;;;;;9.63;4.33;;;4.40;99.90;3.50;96412.00;;;;5067682;28;20465;-69
2021/03/05 07:05:50;;;;;;;4.67;3.97;;;4.40;99.90;3.60;96413.00;;;;5066861;28;20419;-69
2021/03/05 07:08:39;;;;;;;7.10;3.00;;;4.50;99.90;3.80;96416.00;;;;5076832;28;20437;-69
2021/03/05 07:11:38;;;;;;;5.17;3.67;;;4.60;99.90;4.10;96425.00;;;;5080363;28;20956;-69
2021/03/05 07:14:32;;;;;;;10.27;4.07;;;4.70;99.90;4.40;96426.00;;;;5083084;28;20441;-69
2021/03/05 07:17:20;;;;;;;3.83;3.43;;;4.90;99.90;4.50;96420.00;;;;5076860;28;20824;-70
2021/03/05 07:20:09;;;;;;;6.03;3.23;;;5.10;99.90;4.40;96409.00;;;;5075482;28;20456;-69
2021/03/05 07:23:00;;;;;;;4.13;3.73;;;5.30;99.90;4.30;96422.00;;;;5086072;28;20469;-69
2021/03/05 07:25:48;;;;;;;6.53;3.20;;;5.30;99.90;4.40;96415.00;;;;5082197;28;21425;-69
2021/03/05 07:28:38;;;;;;;6.33;3.33;;;5.40;99.90;4.40;96407.00;;;;5079852;28;20971;-69
2021/03/05 07:31:28;;;;;;;3.97;3.47;;;5.40;99.90;4.80;96427.00;;;;5079282;28;20440;-69
2021/03/05 07:34:22;;;;;;;10.70;4.17;;;5.50;99.90;4.90;96424.00;;;;5079235;28;20492;-69
2021/03/05 07:37:13;;;;;;;5.47;3.23;;;5.60;99.90;4.90;96415.00;;;;5080580;28;20860;-69
2021/03/05 07:40:07;;;;;;;10.03;3.60;;;5.70;99.90;5.00;96418.00;;;;5076271;28;20203;-69
2021/03/05 07:42:56;;;;;;;4.07;2.87;;;5.80;99.90;5.00;96422.00;;;;5072151;28;20469;-69
2021/03/05 07:45:44;;;;;;;5.43;3.30;;;5.80;99.90;5.20;96429.00;;;;5084170;28;20437;-69
2021/03/05 07:48:32;;;;;;;7.50;3.93;;;5.90;99.90;5.30;96433.00;;;;5086082;28;20425;-69
2021/03/05 07:51:22;;;;;;;6.00;4.07;;;6.00;99.90;5.40;96431.00;;;;5085177;28;20203;-69
2021/03/05 07:54:10;;;;;;;9.30;3.50;;;6.10;99.90;5.60;96437.00;;;;5085266;28;20425;-69
2021/03/05 07:56:59;;;;;;;7.60;3.80;;;6.20;99.90;5.70;96436.00;;;;5084977;28;20250;-69
2021/03/05 07:59:50;;;;;;;7.00;4.17;;;6.30;99.90;6.00;96435.00;;;;5084151;28;20207;-69
2021/03/05 08:02:56;;;;;;;9.43;4.77;;;7.00;99.90;6.10;96442.00;;;;5087163;28;20226;-69
2021/03/05 08:05:46;;;;;;;8.80;4.20;;;6.60;99.90;6.10;96437.00;;;;5086418;28;20213;-69
2021/03/05 08:08:34;;;;;;;9.77;4.30;;;6.80;99.90;6.00;96438.00;;;;5076036;28;20609;-69
2021/03/05 08:11:26;;;;;;;7.80;4.60;;;6.80;99.90;6.00;96442.00;;;;5085982;28;20208;-69
2021/03/05 08:14:26;;;;;;;3.97;3.60;;;6.80;99.90;5.90;96429.00;;;;5085780;28;20207;-68
2021/03/05 08:17:32;;;;;;;11.23;5.17;;;6.80;99.90;5.90;96433.00;;;;5080900;28;20223;-69
2021/03/05 08:20:50;;;;;;;12.27;4.90;;;6.80;99.90;6.00;96425.00;;;;5082338;28;20670;-69
2021/03/05 08:23:38;;;;;;;6.33;4.70;;;6.80;99.90;6.30;96430.00;;;;5081748;28;20300;-69
2021/03/05 08:26:57;;;;;;;11.40;5.03;;;7.00;99.90;6.60;96426.00;;;;5075666;28;20224;-69
2021/03/05 08:30:11;;;;;;;7.63;4.47;;;7.10;99.90;6.90;96420.00;;;;5080823;28;20568;-68
2021/03/05 08:32:59;;;;;;;16.93;7.90;;;7.40;99.90;7.30;96422.00;;;;5083146;28;20210;-69
2021/03/05 08:35:49;;;;;;;36.03;16.87;;;7.60;99.90;7.70;96422.00;;;;5087051;28;20219;-68
2021/03/05 08:38:40;;;;;;;34.47;15.97;;;7.90;99.90;8.20;96431.00;;;;5084028;28;20205;-69
2021/03/05 08:41:29;;;;;;;24.70;11.93;;;8.30;99.90;8.60;96428.00;;;;5079740;28;20612;-68
2021/03/05 08:44:17;;;;;;;20.83;10.97;;;8.70;99.90;9.10;96416.00;;;;5076972;28;20222;-68
2021/03/05 08:47:07;;;;;;;23.03;11.27;;;9.00;99.90;9.40;96417.00;;;;5076410;28;20230;-68
2021/03/05 08:49:55;;;;;;;14.33;6.90;;;9.40;99.90;9.90;96422.00;;;;5082571;28;20267;-69
2021/03/05 08:52:45;;;;;;;12.83;5.33;;;9.80;99.90;10.40;96415.00;;;;5080533;28;20675;-69
2021/03/05 08:55:35;;;;;;;9.87;4.80;;;10.20;99.90;10.40;96425.00;;;;5080151;28;20211;-69
2021/03/05 08:58:24;;;;;;;13.60;4.20;;;10.60;97.00;10.80;96430.00;;;;5075429;28;20214;-69
2021/03/05 09:01:33;;;;;;;5.07;2.70;;;10.80;95.40;10.60;96422.00;;;;5079519;28;20205;-69
2021/03/05 09:04:21;;;;;;;2.57;2.33;;;11.10;91.70;10.60;96416.00;;;;5081553;28;20842;-69
2021/03/05 09:07:13;;;;;;;9.47;3.00;;;11.30;87.00;10.80;96426.00;;;;5080461;28;20227;-69
2021/03/05 09:10:00;;;;;;;5.87;2.40;;;11.30;85.10;11.20;96415.00;;;;5077680;28;20574;-69
2021/03/05 09:12:59;;;;;;;8.70;2.47;;;11.50;84.50;11.50;96413.00;;;;5079124;28;20215;-69
2021/03/05 09:15:49;;;;;;;2.83;2.40;;;11.70;82.40;11.80;96423.00;;;;5079270;28;20223;-68
2021/03/05 09:18:38;;;;;;;3.83;1.70;;;12.00;81.30;12.20;96437.00;;;;5079988;28;20508;-68
2021/03/05 09:21:27;;;;;;;5.60;2.23;;;12.30;80.50;12.60;96418.00;;;;5081927;28;20203;-68
2021/03/05 09:24:15;;;;;;;4.13;1.87;;;12.60;77.10;12.50;96430.00;;;;5073971;28;20223;-68
2021/03/05 09:27:17;;;;;;;2.10;1.40;;;12.80;76.50;12.30;96425.00;;;;5084453;28;20622;-68
2021/03/05 09:30:17;;;;;;;7.27;1.53;;;13.00;74.60;12.10;96431.00;;;;5080748;28;20274;-68
2021/03/05 09:33:06;;;;;;;4.20;1.30;;;13.00;71.30;12.10;96424.00;;;;5076421;28;20195;-68
2021/03/05 09:36:04;;;;;;;2.30;1.03;;;12.90;68.50;11.80;96431.00;;;;5078874;28;20227;-68
2021/03/05 09:38:56;;;;;;;3.53;0.70;;;12.80;65.80;12.10;96439.00;;;;5073752;28;20362;-68
2021/03/05 09:41:47;;;;;;;1.73;1.00;;;12.80;66.10;12.00;96433.00;;;;5076062;28;20211;-68
2021/03/05 09:44:45;;;;;;;1.70;1.37;;;12.80;64.30;11.80;96444.00;;;;5076157;28;20227;-68
2021/03/05 09:47:46;;;;;;;2.90;1.10;;;12.70;63.80;11.90;96440.00;;;;5069113;28;20326;-68
2021/03/05 09:50:35;;;;;;;1.07;0.63;;;12.60;64.60;12.30;96436.00;;;;5075473;28;20218;-68
2021/03/05 09:53:27;;;;;;;0.60;0.60;;;12.70;63.10;12.40;96450.00;;;;5072718;28;20208;-68
2021/03/05 09:56:16;;;;;;;0.40;0.40;;;12.80;62.20;12.30;96458.00;;;;5083608;28;20594;-68
2021/03/05 09:59:04;;;;;;;0.40;0.40;;;12.90;59.90;12.20;96457.00;;;;5082831;28;20234;-69
2021/03/05 10:01:51;;;;;;;0.47;0.40;;;12.90;59.30;12.10;96465.00;;;;5089290;28;20207;-69
2021/03/05 10:04:44;;;;;;;3.50;0.70;;;12.90;58.40;11.90;96468.00;;;;5078407;28;20239;-68
2021/03/05 10:07:32;;;;;;;0.47;0.30;;;12.80;57.90;12.10;96468.00;;;;5083071;28;20219;-68
2021/03/05 10:10:20;;;;;;;0.40;0.40;;;12.70;58.00;12.20;96478.00;;;;5083190;28;20211;-68
2021/03/05 10:13:11;;;;;;;0.50;0.40;;;12.70;58.30;12.20;96495.00;;;;5078142;28;20902;-68
2021/03/05 10:15:59;;;;;;;1.07;0.77;;;12.80;58.50;12.10;96507.00;;;;5084437;28;20215;-68
2021/03/05 10:18:50;;;;;;;1.40;0.90;;;12.80;59.60;11.60;96520.00;;;;5085320;28;20204;-69
2021/03/05 10:21:42;;;;;;;1.27;1.03;;;12.70;60.70;11.60;96518.00;;;;5083271;28;20200;-69
2021/03/05 10:24:30;;;;;;;2.07;1.10;;;12.60;62.40;11.80;96504.00;;;;5087803;28;20254;-69
2021/03/05 10:27:19;;;;;;;1.23;0.80;;;12.50;64.30;12.20;96523.00;;;;5087902;28;20215;-68
2021/03/05 10:30:10;;;;;;;2.67;0.77;;;12.60;64.80;12.30;96524.00;;;;5088568;28;20222;-69
2021/03/05 10:32:57;;;;;;;1.10;0.60;;;12.80;66.10;12.40;96499.00;;;;5088183;28;20227;-69
2021/03/05 10:35:45;;;;;;;2.50;0.83;;;12.90;66.40;13.60;96537.00;;;;5077590;28;20227;-69
2021/03/05 10:38:34;;;;;;;0.73;0.70;;;13.30;67.10;12.90;96529.00;;;;5085584;28;20203;-69
2021/03/05 10:41:22;;;;;;;0.93;0.80;;;13.40;64.80;12.50;96536.00;;;;5083315;28;20234;-69
2021/03/05 10:44:10;;;;;;;1.90;1.73;;;13.40;63.40;12.40;96541.00;;;;5087896;28;20226;-68
2021/03/05 10:47:00;;;;;;;1.43;0.90;;;13.30;63.80;12.20;96536.00;;;;5081440;28;20799;-70
2021/03/05 10:49:49;;;;;;;3.07;2.10;;;13.10;63.70;12.20;96529.00;;;;5088589;28;20253;-68
2021/03/05 10:52:37;;;;;;;2.97;1.60;;;13.00;64.10;12.60;96537.00;;;;5079350;28;20386;-68
2021/03/05 10:55:25;;;;;;;6.27;3.60;;;13.10;64.90;12.40;96536.00;;;;5076301;28;20203;-68
2021/03/05 10:58:13;;;;;;;0.97;0.80;;;13.00;64.20;12.00;96526.00;;;;5086169;28;20210;-68
2021/03/05 11:01:00;;;;;;;3.87;2.77;;;13.00;63.10;12.20;96524.00;;;;5075352;28;20202;-69
2021/03/05 11:03:49;;;;;;;1.13;1.03;;;12.90;63.70;12.10;96531.00;;;;5077481;28;20227;-68
2021/03/05 11:06:37;;;;;;;3.33;1.37;;;12.90;63.80;13.30;96488.00;;;;5076010;28;20265;-68
2021/03/05 11:09:27;;;;;;;1.53;1.03;;;13.30;63.70;14.70;96486.00;;;;5072805;28;20555;-68
2021/03/05 11:12:15;;;;;;;2.53;0.80;;;14.00;63.30;14.50;96552.00;;;;5085920;28;20709;-68
2021/03/05 11:15:04;;;;;;;9.43;6.23;;;14.70;60.20;14.60;96556.00;;;;5083494;28;20200;-68
2021/03/05 11:17:52;;;;;;;16.50;6.23;;;15.10;60.00;13.70;96554.00;;;;5087255;28;21036;-68
2021/03/05 11:20:41;;;;;;;0.77;0.63;;;14.90;59.00;12.80;96560.00;;;;5086726;28;20214;-68
2021/03/05 11:23:28;;;;;;;2.03;1.13;;;14.60;57.80;13.00;96557.00;;;;5087368;28;20223;-68
2021/03/05 11:26:17;;;;;;;2.47;1.07;;;14.30;58.50;12.70;96561.00;;;;5087316;28;20231;-68
2021/03/05 11:29:05;;;;;;;9.33;4.33;;;14.00;58.60;12.60;96556.00;;;;5081934;28;20702;-68
2021/03/05 11:31:53;;;;;;;32.27;16.17;;;13.70;59.50;12.20;96532.00;;;;5084481;28;20214;-68
2021/03/05 11:34:43;;;;;;;38.10;16.30;;;13.50;59.60;14.30;96509.00;;;;5086324;28;20211;-68
2021/03/05 11:37:31;;;;;;;10.63;5.63;;;13.90;61.10;15.20;96521.00;;;;5086087;28;20227;-68
2021/03/05 11:40:21;;;;;;;5.43;2.63;;;14.50;59.60;16.00;96508.00;;;;5086937;28;20192;-68
2021/03/05 11:43:09;;;;;;;1.13;0.80;;;15.30;58.00;15.50;96505.00;;;;5087332;28;20230;-69
2021/03/05 11:46:00;;;;;;;0.40;0.40;;;16.10;54.60;15.90;96498.00;;;;5087331;28;20241;-68
2021/03/05 11:48:49;;;;;;;0.30;0.30;;;16.50;54.70;16.70;96506.00;;;;5075848;28;20207;-68
2021/03/05 11:51:37;;;;;;;0.70;0.30;;;17.10;53.70;16.50;96499.00;;;;5087050;28;20209;-68
2021/03/05 11:54:26;;;;;;;1.40;0.30;;;17.50;52.20;17.30;96527.00;;;;5085722;28;20686;-68
2021/03/05 11:57:14;;;;;;;0.43;0.40;;;17.80;52.20;17.80;96497.00;;;;5086098;28;20235;-68
2021/03/05 12:00:02;;;;;;;0.67;0.60;;;18.10;52.20;17.80;96493.00;;;;5074817;28;20207;-68
2021/03/05 12:02:49;;;;;;;3.10;1.90;;;18.30;51.00;18.40;96487.00;;;;5085528;28;20203;-68
2021/03/05 12:05:37;;;;;;;0.70;0.50;;;18.70;50.20;18.40;96517.00;;;;5078689;28;20261;-68
2021/03/05 12:08:25;;;;;;;2.20;0.67;;;19.00;49.80;17.30;96502.00;;;;5079154;28;20195;-68
2021/03/05 12:11:14;;;;;;;0.43;0.30;;;18.80;48.60;16.50;96532.00;;;;5084902;28;20584;-67
2021/03/05 12:14:02;;;;;;;8.50;4.60;;;18.40;48.40;15.10;96534.00;;;;5086160;28;20219;-67
2021/03/05 12:16:50;;;;;;;0.73;0.60;;;17.60;48.30;14.60;96554.00;;;;5086017;28;20231;-67
2021/03/05 12:19:37;;;;;;;0.63;0.60;;;16.80;49.50;14.40;96541.00;;;;5078034;28;20223;-67
2021/03/05 12:22:25;;;;;;;0.30;0.20;;;16.10;50.50;13.60;96543.00;;;;5080149;28;20219;-67
2021/03/05 12:25:14;;;;;;;2.87;0.30;;;15.40;51.60;13.60;96538.00;;;;5084802;28;20360;-67
2021/03/05 12:28:04;;;;;;;0.40;0.30;;;15.00;52.40;13.20;96547.00;;;;5082350;28;20199;-67
2021/03/05 12:30:52;;;;;;;0.40;0.40;;;14.60;52.40;13.00;96554.00;;;;5081740;28;20317;-69
2021/03/05 12:33:41;;;;;;;0.23;0.20;;;14.30;53.10;12.60;96545.00;;;;5086358;28;20231;-67
2021/03/05 12:36:29;;;;;;;0.20;0.20;;;14.00;52.90;12.60;96551.00;;;;5078442;28;20228;-68
2021/03/05 12:39:17;;;;;;;1.70;0.63;;;13.70;53.70;12.50;96545.00;;;;5080239;28;20290;-68
2021/03/05 12:42:05;;;;;;;0.50;0.30;;;13.50;54.30;12.20;96555.00;;;;5085271;28;20207;-68
2021/03/05 12:44:54;;;;;;;2.50;0.30;;;13.30;54.20;12.20;96556.00;;;;5085264;28;20260;-68
2021/03/05 12:47:42;;;;;;;0.60;0.30;;;13.10;54.10;12.00;96556.00;;;;5081204;28;20231;-68
2021/03/05 12:50:30;;;;;;;1.23;0.30;;;13.00;54.40;11.90;96560.00;;;;5076691;28;20210;-68